13:20
Airports
History
Links
Donate
Help keep this website running!
PayPal
Bitcoin
This page is community maintained. The information is intended for PC simulator navigation or reference.
Always use approved charts for navigation.
0D4
Camp Vernon
Camp Vernon (0D4)
Westfield, New York, United States (14787)
4
Lat/Lng:42° 21' 22.21" N / 79° 32' 56.17" W
42.356169 / -79.548936
Elevation:655'ft / 200mMSL
ID / ICAO:0D4
Runways:1
Longest:02-20
Grass 901m / 2,957ft
Nearby Weather12:53 GMT 2017-10-17
Nearby weather at KDKK, Chautauqua County/dunkirk located 17.1 nautical miles from 0D4
Altimeter: 30.28
Visibility: 10.0 statute miles
Wind: 14 knots (from 200°)
Temp: 8°c / 46°f
Humidity: 65.8%

METAR: KDKK 171253Z AUTO 20014G21KT 10SM BKN065 08/02 A3028 RMK AO2 SLP256 T00780017

(Powered by phpweather)
Nearby VORs <50NM
Nearby NDBs
Runway 02 / 20
Dimensions:901.2 x 15.2m 2957' x 50'ft
Surface:Grass
Runway 02 [A]Runway 20 [B]
Heading:011°TH 191°TH
Lat:
Lng:
42° 21' 7.91"N
79° 32' 59.93"W
42° 21' 36.5"N
79° 32' 52.41"W
User Notes and Comments
42° 21' 22.21" N / 79° 32' 56.17" W
Distance To
Airport ID:
Nearby Airports
4 Dart 7.0 NM
D79 SSE 150°
(R) Chautauqua Lake Airpark 7.3 NM
65NY SE 132°
4 Pratts Eastern Divide 15.9 NM
D88 SSW 206°
(U) Chautauqua County/dunkirk 17.1 NM
KDKK ( WX ) NE 56°
(U) Chautauqua County/jamestown 20.4 NM
KJHW ( WX ) SE 133°
(R) Fairbank Farms 20.7 NM
NY89 SSE 157°
(R) Ridgeview 22.5 NM
55NY SSE 147°
VFR Chart
Flight Planning at SkyVector.com